Time;durP1;ratioP1;P1;durP2;ratioP2;P2;SDS_P1;SDS_P2;PMS_P1;PMS_P2;Temp;Humidity;BMP_temperature;BMP_pressure;BME280_temperature;BME280_humidity;BME280_pressure;Samples;Min_cycle;Max_cycle;Signal;HPM_P1;HPM_P2
2022/12/10 00:01:28;;;;;;;42.88;21.70;;;;;;;;;;5052741;28;20044;-60
2022/12/10 00:03:53;;;;;;;42.42;22.05;;;;;;;;;;5044244;28;20040;-60
2022/12/10 00:06:22;;;;;;;37.60;20.15;;;;;;;;;;5048488;28;20087;-58
2022/12/10 00:08:48;;;;;;;40.20;21.52;;;;;;;;;;5052101;28;20033;-60
2022/12/10 00:11:14;;;;;;;38.90;20.20;;;;;;;;;;5045214;28;20082;-59
2022/12/10 00:13:39;;;;;;;40.05;21.00;;;;;;;;;;5054454;28;20395;-59
2022/12/10 00:16:06;;;;;;;40.55;20.67;;;;;;;;;;5041554;28;20021;-59
2022/12/10 00:18:32;;;;;;;39.25;20.95;;;;;;;;;;5044299;28;20025;-60
2022/12/10 00:20:57;;;;;;;38.47;20.85;;;;;;;;;;5049688;28;20036;-58
2022/12/10 00:23:23;;;;;;;42.45;21.05;;;;;;;;;;5043137;28;20652;-58
2022/12/10 00:25:48;;;;;;;39.63;21.17;;;;;;;;;;5050001;28;20035;-58
2022/12/10 00:28:14;;;;;;;36.08;20.05;;;;;;;;;;5043751;28;20043;-58
2022/12/10 00:30:39;;;;;;;39.45;22.65;;;;;;;;;;5045157;28;20105;-61
2022/12/10 00:33:05;;;;;;;43.40;22.17;;;;;;;;;;5053167;28;20051;-58
2022/12/10 00:35:30;;;;;;;38.08;19.55;;;;;;;;;;5045796;28;20048;-58
2022/12/10 00:37:55;;;;;;;38.55;21.73;;;;;;;;;;5051463;28;20429;-59
2022/12/10 00:40:21;;;;;;;40.70;21.48;;;;;;;;;;5044520;28;20032;-58
2022/12/10 00:42:46;;;;;;;44.17;21.77;;;;;;;;;;5045884;28;20032;-59
2022/12/10 00:45:11;;;;;;;41.35;21.63;;;;;;;;;;5052630;28;20070;-64
2022/12/10 00:47:37;;;;;;;40.30;20.27;;;;;;;;;;5043813;28;20223;-58
2022/12/10 00:50:02;;;;;;;43.70;21.10;;;;;;;;;;5051379;28;20956;-60
2022/12/10 00:52:27;;;;;;;37.83;20.70;;;;;;;;;;5043874;28;20058;-61
2022/12/10 00:54:53;;;;;;;36.72;20.23;;;;;;;;;;5042985;28;20142;-58
2022/12/10 00:57:18;;;;;;;39.40;21.30;;;;;;;;;;5052743;28;20032;-57
2022/12/10 00:59:43;;;;;;;39.80;21.48;;;;;;;;;;5048385;28;20493;-57
2022/12/10 01:02:09;;;;;;;39.20;20.75;;;;;;;;;;5049518;28;20050;-58
2022/12/10 01:04:34;;;;;;;39.05;20.90;;;;;;;;;;5047063;28;20040;-59
2022/12/10 01:06:59;;;;;;;37.72;20.33;;;;;;;;;;5047460;28;20589;-58
2022/12/10 01:09:26;;;;;;;37.33;19.52;;;;;;;;;;5048821;28;20059;-57
2022/12/10 01:11:53;;;;;;;35.38;19.83;;;;;;;;;;5043197;28;20497;-59
2022/12/10 01:14:20;;;;;;;39.67;20.60;;;;;;;;;;5049556;28;20037;-59
2022/12/10 01:16:47;;;;;;;42.30;21.50;;;;;;;;;;5044840;28;20029;-58
2022/12/10 01:19:12;;;;;;;35.00;20.55;;;;;;;;;;5044625;28;20395;-58
2022/12/10 01:21:38;;;;;;;33.45;20.13;;;;;;;;;;5051037;28;20040;-57
2022/12/10 01:24:04;;;;;;;37.55;20.38;;;;;;;;;;5044845;28;20032;-58
2022/12/10 01:26:30;;;;;;;38.13;20.98;;;;;;;;;;5050670;28;20445;-60
2022/12/10 01:28:56;;;;;;;39.97;21.35;;;;;;;;;;5050676;28;20020;-58
2022/12/10 01:31:23;;;;;;;40.42;21.17;;;;;;;;;;5045689;28;20033;-59
2022/12/10 01:33:48;;;;;;;39.13;20.85;;;;;;;;;;5050101;28;20040;-58
2022/12/10 01:36:15;;;;;;;36.90;20.00;;;;;;;;;;5045764;28;20029;-58
2022/12/10 01:38:42;;;;;;;35.72;19.95;;;;;;;;;;5045728;28;20029;-61
2022/12/10 01:41:08;;;;;;;34.50;18.95;;;;;;;;;;5051629;28;20493;-60
2022/12/10 01:43:52;;;;;;;35.30;19.55;;;;;;;;;;5045302;28;20388;-59
2022/12/10 01:46:18;;;;;;;41.75;21.05;;;;;;;;;;5034466;28;20521;-58
2022/12/10 01:48:43;;;;;;;39.70;19.70;;;;;;;;;;5044470;28;20116;-60
2022/12/10 01:51:10;;;;;;;38.28;20.95;;;;;;;;;;5044972;28;20021;-58
2022/12/10 01:53:35;;;;;;;40.60;20.75;;;;;;;;;;5049169;28;20531;-59
2022/12/10 01:56:00;;;;;;;40.80;21.55;;;;;;;;;;5042771;28;20129;-58
2022/12/10 01:58:26;;;;;;;40.40;20.83;;;;;;;;;;5034346;28;20826;-59
2022/12/10 02:00:58;;;;;;;36.33;19.42;;;;;;;;;;5043552;28;20503;-59
2022/12/10 02:03:29;;;;;;;39.67;21.00;;;;;;;;;;5052610;28;20036;-58
2022/12/10 02:06:00;;;;;;;40.10;20.65;;;;;;;;;;5048962;28;20091;-58
2022/12/10 02:08:46;;;;;;;36.65;20.35;;;;;;;;;;5046387;28;20044;-58
2022/12/10 02:11:47;;;;;;;41.72;21.00;;;;;;;;;;5041721;28;20860;-58
2022/12/10 02:14:25;;;;;;;39.85;19.40;;;;;;;;;;5012709;28;20064;-58
2022/12/10 02:16:55;;;;;;;39.40;20.52;;;;;;;;;;5036670;28;20040;-59
2022/12/10 02:19:39;;;;;;;39.47;21.23;;;;;;;;;;5045052;28;20503;-59
2022/12/10 02:22:06;;;;;;;37.22;20.00;;;;;;;;;;5052061;28;20061;-58
2022/12/10 02:24:34;;;;;;;36.63;19.45;;;;;;;;;;5042999;28;20037;-60
2022/12/10 02:27:06;;;;;;;39.60;20.65;;;;;;;;;;5050571;28;20045;-61
2022/12/10 02:29:32;;;;;;;37.40;19.88;;;;;;;;;;5050124;28;20499;-58
2022/12/10 02:32:13;;;;;;;38.75;21.55;;;;;;;;;;5042876;28;20033;-58
2022/12/10 02:34:42;;;;;;;37.67;20.80;;;;;;;;;;5043513;28;20036;-58
2022/12/10 02:37:11;;;;;;;37.53;20.17;;;;;;;;;;5038649;28;20387;-58
2022/12/10 02:39:43;;;;;;;38.53;20.25;;;;;;;;;;5035994;28;20021;-59
2022/12/10 02:42:09;;;;;;;38.65;20.65;;;;;;;;;;5053353;28;20063;-59
2022/12/10 02:44:35;;;;;;;39.10;20.42;;;;;;;;;;5065210;28;20044;-58
2022/12/10 02:47:02;;;;;;;34.95;19.63;;;;;;;;;;5054352;28;20033;-57
2022/12/10 02:49:33;;;;;;;36.95;19.65;;;;;;;;;;5049198;28;20031;-59
2022/12/10 02:52:06;;;;;;;34.92;19.23;;;;;;;;;;5044594;28;20064;-57
2022/12/10 02:54:42;;;;;;;41.42;21.55;;;;;;;;;;5053424;28;20040;-58
2022/12/10 02:57:14;;;;;;;43.97;20.80;;;;;;;;;;5048741;28;20116;-59
2022/12/10 02:59:57;;;;;;;42.30;20.35;;;;;;;;;;5051223;28;20036;-57
2022/12/10 03:02:31;;;;;;;36.72;20.23;;;;;;;;;;5059027;28;20025;-57
2022/12/10 03:05:03;;;;;;;39.30;20.23;;;;;;;;;;5047601;28;20043;-57
2022/12/10 03:07:45;;;;;;;41.05;20.85;;;;;;;;;;5047929;28;20098;-59
2022/12/10 03:10:10;;;;;;;34.47;19.85;;;;;;;;;;5052031;28;20035;-56
2022/12/10 03:12:37;;;;;;;40.90;20.48;;;;;;;;;;5047708;28;20025;-57
2022/12/10 03:15:04;;;;;;;36.55;20.20;;;;;;;;;;5052651;28;20445;-58
2022/12/10 03:17:31;;;;;;;41.58;21.63;;;;;;;;;;5048694;28;20406;-59
2022/12/10 03:19:57;;;;;;;42.95;22.05;;;;;;;;;;5046785;28;20516;-58
2022/12/10 03:22:23;;;;;;;36.30;19.30;;;;;;;;;;5054181;28;20048;-58
2022/12/10 03:24:49;;;;;;;34.35;19.25;;;;;;;;;;5048525;28;20036;-59
2022/12/10 03:27:18;;;;;;;41.05;20.75;;;;;;;;;;5054609;28;20032;-59
2022/12/10 03:29:45;;;;;;;42.10;21.83;;;;;;;;;;5050942;28;20036;-58
2022/12/10 03:32:11;;;;;;;39.78;20.45;;;;;;;;;;5053422;28;20032;-58
2022/12/10 03:34:37;;;;;;;39.88;19.92;;;;;;;;;;5051981;28;20124;-57
2022/12/10 03:37:02;;;;;;;40.53;20.30;;;;;;;;;;5045639;28;20062;-57
2022/12/10 03:39:28;;;;;;;41.33;20.92;;;;;;;;;;5051398;28;20051;-57
2022/12/10 03:41:53;;;;;;;41.63;21.65;;;;;;;;;;5046702;28;20024;-58
2022/12/10 03:44:29;;;;;;;43.05;21.83;;;;;;;;;;5047262;28;20083;-57
2022/12/10 03:46:54;;;;;;;44.55;21.65;;;;;;;;;;5052341;28;20029;-58
2022/12/10 03:49:20;;;;;;;39.97;22.17;;;;;;;;;;5046608;28;20524;-57
2022/12/10 03:51:45;;;;;;;42.38;21.83;;;;;;;;;;5048885;28;20037;-59
2022/12/10 03:54:10;;;;;;;38.22;20.75;;;;;;;;;;5048923;28;20044;-57
2022/12/10 03:56:36;;;;;;;41.17;22.05;;;;;;;;;;5047516;28;20032;-57
2022/12/10 03:59:01;;;;;;;38.35;20.73;;;;;;;;;;5050632;28;20032;-57
2022/12/10 04:01:26;;;;;;;39.33;21.60;;;;;;;;;;5044546;28;20025;-58
2022/12/10 04:03:51;;;;;;;40.17;20.05;;;;;;;;;;5049574;28;20078;-60
2022/12/10 04:06:18;;;;;;;43.90;21.83;;;;;;;;;;5050443;28;20040;-57
2022/12/10 04:08:44;;;;;;;41.92;21.95;;;;;;;;;;5051059;28;20074;-56
2022/12/10 04:11:10;;;;;;;39.08;19.98;;;;;;;;;;5049729;28;20063;-59
2022/12/10 04:16:26;;;;;;;38.97;19.98;;;;;;;;;;5048590;28;20029;-57
2022/12/10 04:18:51;;;;;;;45.05;22.63;;;;;;;;;;5051600;28;20055;-57
2022/12/10 04:26:53;;;;;;;45.55;21.95;;;;;;;;;;5052984;28;20068;-57
2022/12/10 04:29:19;;;;;;;41.90;21.15;;;;;;;;;;5047073;28;20028;-58
2022/12/10 04:31:44;;;;;;;37.75;20.63;;;;;;;;;;5053427;28;20112;-57
2022/12/10 04:34:10;;;;;;;40.08;20.25;;;;;;;;;;5044785;28;20628;-57
2022/12/10 04:36:35;;;;;;;41.10;20.75;;;;;;;;;;5044563;28;20035;-58
2022/12/10 04:39:00;;;;;;;40.15;21.05;;;;;;;;;;5050672;28;20032;-58
2022/12/10 04:41:26;;;;;;;43.08;21.60;;;;;;;;;;5046155;28;20029;-57
2022/12/10 04:43:52;;;;;;;38.70;20.25;;;;;;;;;;5049785;28;20061;-58
2022/12/10 04:46:17;;;;;;;38.95;19.10;;;;;;;;;;5047663;28;20045;-57
2022/12/10 04:48:42;;;;;;;42.53;21.17;;;;;;;;;;5046677;28;20036;-58
2022/12/10 04:51:07;;;;;;;44.50;21.98;;;;;;;;;;5051996;28;20033;-58
2022/12/10 04:53:33;;;;;;;40.85;21.75;;;;;;;;;;5051147;28;20032;-58
2022/12/10 04:55:58;;;;;;;40.17;20.98;;;;;;;;;;5050432;28;20076;-58
2022/12/10 04:58:23;;;;;;;41.72;20.30;;;;;;;;;;5046841;28;20032;-58
2022/12/10 05:00:49;;;;;;;41.90;20.67;;;;;;;;;;5047021;28;20035;-60
2022/12/10 05:03:14;;;;;;;41.65;21.50;;;;;;;;;;5047896;28;20029;-58
2022/12/10 05:05:39;;;;;;;42.40;20.75;;;;;;;;;;5042083;28;20372;-58
2022/12/10 05:08:04;;;;;;;38.08;19.95;;;;;;;;;;5052283;28;20778;-60
2022/12/10 05:10:30;;;;;;;39.42;21.35;;;;;;;;;;5045020;28;20031;-58
2022/12/10 05:12:55;;;;;;;41.08;21.85;;;;;;;;;;5044506;28;20024;-58
2022/12/10 05:15:21;;;;;;;38.45;21.40;;;;;;;;;;5053263;28;20035;-56
2022/12/10 05:17:46;;;;;;;38.92;20.20;;;;;;;;;;5045194;28;20586;-56
2022/12/10 05:20:11;;;;;;;36.83;20.10;;;;;;;;;;5048005;28;20055;-57
2022/12/10 05:25:21;;;;;;;38.05;20.30;;;;;;;;;;5044601;28;20032;-57
2022/12/10 05:27:46;;;;;;;41.60;21.15;;;;;;;;;;5050700;28;20028;-58
2022/12/10 05:30:11;;;;;;;40.17;21.08;;;;;;;;;;5045928;28;20565;-57
2022/12/10 05:32:37;;;;;;;41.40;22.17;;;;;;;;;;5045212;28;20044;-58
2022/12/10 05:35:03;;;;;;;44.97;22.95;;;;;;;;;;5050057;28;20032;-58
2022/12/10 05:37:28;;;;;;;40.75;21.90;;;;;;;;;;5046593;28;20032;-57
2022/12/10 05:39:54;;;;;;;41.90;21.73;;;;;;;;;;5054677;28;20033;-56
2022/12/10 05:42:19;;;;;;;50.40;25.40;;;;;;;;;;5044139;28;20052;-57
2022/12/10 05:44:44;;;;;;;42.45;21.90;;;;;;;;;;5045120;28;20041;-58
2022/12/10 05:47:09;;;;;;;40.47;21.85;;;;;;;;;;5051032;28;20047;-57
2022/12/10 05:49:35;;;;;;;41.92;20.75;;;;;;;;;;5045074;28;20028;-58
2022/12/10 05:52:01;;;;;;;39.72;21.10;;;;;;;;;;5052207;28;20033;-57
2022/12/10 05:54:26;;;;;;;43.30;23.33;;;;;;;;;;5044335;28;20248;-58
2022/12/10 05:56:53;;;;;;;40.78;20.88;;;;;;;;;;5044972;28;20017;-57
2022/12/10 05:59:18;;;;;;;40.73;22.03;;;;;;;;;;5052597;28;20029;-58
2022/12/10 06:01:43;;;;;;;41.60;21.25;;;;;;;;;;5045401;28;20093;-58
2022/12/10 06:04:09;;;;;;;44.45;22.48;;;;;;;;;;5050464;28;20031;-59
2022/12/10 06:06:35;;;;;;;40.70;21.35;;;;;;;;;;5046489;28;20671;-56
2022/12/10 06:09:01;;;;;;;45.17;22.45;;;;;;;;;;5049752;28;20025;-58
2022/12/10 06:11:27;;;;;;;44.92;21.83;;;;;;;;;;5052278;28;20029;-58
2022/12/10 06:13:54;;;;;;;43.33;21.95;;;;;;;;;;5050556;28;20031;-58
2022/12/10 06:16:20;;;;;;;39.63;20.42;;;;;;;;;;5053140;28;20037;-58
2022/12/10 06:18:45;;;;;;;39.67;21.60;;;;;;;;;;5049015;28;20075;-58
2022/12/10 06:21:12;;;;;;;36.42;19.63;;;;;;;;;;5049109;28;20032;-58
2022/12/10 06:23:38;;;;;;;41.28;21.38;;;;;;;;;;5051441;28;20041;-58
2022/12/10 06:26:07;;;;;;;41.92;22.30;;;;;;;;;;5048249;28;20154;-58
2022/12/10 06:28:32;;;;;;;42.22;22.05;;;;;;;;;;5056222;28;20028;-57
2022/12/10 06:30:58;;;;;;;42.40;21.35;;;;;;;;;;5049810;28;20021;-57
2022/12/10 06:33:23;;;;;;;37.45;20.30;;;;;;;;;;5048083;28;20029;-57
2022/12/10 06:35:49;;;;;;;40.40;21.65;;;;;;;;;;5053303;28;20839;-57
2022/12/10 06:38:14;;;;;;;37.58;20.67;;;;;;;;;;5048324;28;20048;-57
2022/12/10 06:40:40;;;;;;;41.08;22.08;;;;;;;;;;5049340;28;20060;-58
2022/12/10 06:43:05;;;;;;;43.35;22.75;;;;;;;;;;5049176;28;20032;-58
2022/12/10 06:45:30;;;;;;;43.72;22.08;;;;;;;;;;5046496;28;20076;-58
2022/12/10 06:47:56;;;;;;;39.45;21.95;;;;;;;;;;5053412;28;20036;-59
2022/12/10 06:50:21;;;;;;;43.53;21.17;;;;;;;;;;5049441;28;20071;-59
2022/12/10 06:52:46;;;;;;;41.22;21.77;;;;;;;;;;5054869;28;20056;-59
2022/12/10 06:55:12;;;;;;;44.42;21.75;;;;;;;;;;5046966;28;20032;-57
2022/12/10 06:57:37;;;;;;;43.40;21.83;;;;;;;;;;5045376;28;20423;-57
2022/12/10 07:00:03;;;;;;;42.72;22.38;;;;;;;;;;5054599;28;20497;-57
2022/12/10 07:02:28;;;;;;;40.92;21.50;;;;;;;;;;5048388;28;20041;-57
2022/12/10 07:04:56;;;;;;;50.75;26.08;;;;;;;;;;5049892;28;20032;-55
2022/12/10 07:07:21;;;;;;;45.17;24.77;;;;;;;;;;5047093;28;20033;-58
2022/12/10 07:09:47;;;;;;;48.30;24.20;;;;;;;;;;5045884;28;20044;-57
2022/12/10 07:12:12;;;;;;;41.53;23.70;;;;;;;;;;5057583;28;20111;-57
2022/12/10 07:14:37;;;;;;;44.08;23.13;;;;;;;;;;5046006;28;20443;-57
2022/12/10 07:17:03;;;;;;;44.08;22.83;;;;;;;;;;5052373;28;20032;-56
2022/12/10 07:19:28;;;;;;;40.80;21.00;;;;;;;;;;5048339;28;20043;-58
2022/12/10 07:21:54;;;;;;;38.53;21.38;;;;;;;;;;5053653;28;20021;-58
2022/12/10 07:24:19;;;;;;;42.25;21.83;;;;;;;;;;5056171;28;20025;-58
2022/12/10 07:26:45;;;;;;;40.40;21.75;;;;;;;;;;5049453;28;20064;-59
2022/12/10 07:29:15;;;;;;;39.65;22.20;;;;;;;;;;5055956;28;20028;-57
2022/12/10 07:31:40;;;;;;;45.10;22.88;;;;;;;;;;5047804;28;20036;-58
2022/12/10 07:34:06;;;;;;;50.47;27.55;;;;;;;;;;5044522;28;20021;-57
2022/12/10 07:36:32;;;;;;;56.38;29.10;;;;;;;;;;5054343;28;20028;-59
2022/12/10 07:38:57;;;;;;;48.22;26.08;;;;;;;;;;5048137;28;20396;-58
2022/12/10 07:41:23;;;;;;;51.35;25.20;;;;;;;;;;5057624;28;20032;-57
2022/12/10 07:43:48;;;;;;;49.80;25.40;;;;;;;;;;5046555;28;20533;-59
2022/12/10 07:46:16;;;;;;;49.28;25.27;;;;;;;;;;5045208;28;20029;-57
2022/12/10 07:48:41;;;;;;;;;;;;;;;;;;5048752;28;20554;-58
2022/12/10 07:51:07;;;;;;;51.63;23.47;;;;;;;;;;5051307;28;19966;-57
2022/12/10 07:53:32;;;;;;;46.30;23.48;;;;;;;;;;5057086;28;20289;-57
2022/12/10 07:55:58;;;;;;;38.75;22.33;;;;;;;;;;5057334;28;20107;-58
2022/12/10 07:58:23;;;;;;;41.95;23.38;;;;;;;;;;5051510;28;20033;-59
2022/12/10 08:00:49;;;;;;;40.70;22.65;;;;;;;;;;5056918;28;20078;-58
2022/12/10 08:03:14;;;;;;;37.67;21.25;;;;;;;;;;5050927;28;20028;-57
2022/12/10 08:05:39;;;;;;;44.33;22.48;;;;;;;;;;5058210;28;20032;-57
2022/12/10 08:08:05;;;;;;;48.47;23.90;;;;;;;;;;5046806;28;20082;-57
2022/12/10 08:10:33;;;;;;;48.50;24.80;;;;;;;;;;5051560;28;20029;-58
2022/12/10 08:12:58;;;;;;;41.90;21.90;;;;;;;;;;5049911;28;20075;-57
2022/12/10 08:15:23;;;;;;;35.75;20.42;;;;;;;;;;5046755;28;20048;-58
2022/12/10 08:17:48;;;;;;;40.50;21.02;;;;;;;;;;5052581;28;20023;-56
2022/12/10 08:20:14;;;;;;;43.95;21.80;;;;;;;;;;5046217;28;20020;-56
2022/12/10 08:22:39;;;;;;;35.75;20.75;;;;;;;;;;5048760;28;20035;-59
2022/12/10 08:25:05;;;;;;;40.33;21.05;;;;;;;;;;5052559;28;20024;-58
2022/12/10 08:27:30;;;;;;;37.13;21.27;;;;;;;;;;5044616;28;20028;-58
2022/12/10 08:29:55;;;;;;;39.63;22.25;;;;;;;;;;5053137;28;20020;-59
2022/12/10 08:32:21;;;;;;;37.88;21.00;;;;;;;;;;5047083;28;20052;-59
2022/12/10 08:34:46;;;;;;;45.55;23.92;;;;;;;;;;5050574;28;20478;-56
2022/12/10 08:37:11;;;;;;;42.88;22.02;;;;;;;;;;5055466;28;20057;-57
2022/12/10 08:39:36;;;;;;;38.67;21.02;;;;;;;;;;5048203;28;20037;-58
2022/12/10 08:42:02;;;;;;;40.05;21.17;;;;;;;;;;5051723;28;20036;-56
2022/12/10 08:44:27;;;;;;;39.70;21.67;;;;;;;;;;5044413;28;20029;-56
2022/12/10 08:46:52;;;;;;;44.30;22.98;;;;;;;;;;5045870;28;20072;-59
2022/12/10 08:49:18;;;;;;;38.47;21.15;;;;;;;;;;5052085;28;20079;-58
2022/12/10 08:51:43;;;;;;;37.72;20.80;;;;;;;;;;5050447;28;20032;-58
2022/12/10 08:54:08;;;;;;;40.55;22.60;;;;;;;;;;5055105;28;20386;-58
2022/12/10 08:56:34;;;;;;;37.53;21.40;;;;;;;;;;5055441;28;20111;-57
2022/12/10 08:58:59;;;;;;;42.85;21.30;;;;;;;;;;5053300;28;20108;-57
2022/12/10 09:01:25;;;;;;;38.05;21.10;;;;;;;;;;5050440;28;20493;-57
2022/12/10 09:03:50;;;;;;;41.20;21.20;;;;;;;;;;5051072;28;20056;-58
2022/12/10 09:06:17;;;;;;;42.22;22.58;;;;;;;;;;5051323;28;20510;-57
2022/12/10 09:08:43;;;;;;;;;;;;;;;;;;5054702;28;20080;-58
2022/12/10 09:11:09;;;;;;;37.80;19.95;;;;;;;;;;5056321;28;20020;-57
2022/12/10 09:13:35;;;;;;;42.00;22.35;;;;;;;;;;5068417;28;20044;-58
2022/12/10 09:16:00;;;;;;;35.47;21.02;;;;;;;;;;5052571;28;20676;-59
2022/12/10 09:18:26;;;;;;;40.17;22.35;;;;;;;;;;5056934;28;20043;-58
2022/12/10 09:20:51;;;;;;;43.80;21.90;;;;;;;;;;5056244;28;20077;-57
2022/12/10 09:23:16;;;;;;;39.33;21.83;;;;;;;;;;5057154;28;20036;-56
2022/12/10 09:25:42;;;;;;;39.40;21.30;;;;;;;;;;5055851;28;20029;-58
2022/12/10 09:28:07;;;;;;;37.60;20.20;;;;;;;;;;5054984;28;20132;-58
2022/12/10 09:30:32;;;;;;;31.92;17.73;;;;;;;;;;5053914;28;20121;-59
2022/12/10 09:32:58;;;;;;;37.78;19.33;;;;;;;;;;5055229;28;20070;-59
2022/12/10 09:35:23;;;;;;;39.83;20.08;;;;;;;;;;5053617;28;20029;-59
2022/12/10 09:37:48;;;;;;;35.83;19.17;;;;;;;;;;5053082;28;20028;-59
2022/12/10 09:40:15;;;;;;;31.67;19.45;;;;;;;;;;5050701;28;20036;-59
2022/12/10 09:42:40;;;;;;;31.33;18.38;;;;;;;;;;5052333;28;20090;-59
2022/12/10 09:45:19;;;;;;;31.67;17.10;;;;;;;;;;5053033;28;21464;-59
2022/12/10 09:47:47;;;;;;;31.73;18.05;;;;;;;;;;5050977;28;20036;-58
2022/12/10 09:50:18;;;;;;;31.08;18.50;;;;;;;;;;5052030;28;20039;-58
2022/12/10 09:52:45;;;;;;;35.13;18.88;;;;;;;;;;5053542;28;20028;-59
2022/12/10 09:55:18;;;;;;;31.27;17.90;;;;;;;;;;5054927;28;20075;-58
2022/12/10 09:57:46;;;;;;;34.22;18.83;;;;;;;;;;5051012;28;20123;-58
2022/12/10 10:00:11;;;;;;;;;;;;;;;;;;5054895;28;20017;-58
2022/12/10 10:02:39;;;;;;;32.97;18.02;;;;;;;;;;5051967;28;19909;-57
2022/12/10 10:05:08;;;;;;;34.55;17.88;;;;;;;;;;5053523;28;20044;-58
2022/12/10 10:07:38;;;;;;;31.27;17.75;;;;;;;;;;5056647;28;20029;-57
2022/12/10 10:10:06;;;;;;;32.00;17.27;;;;;;;;;;5055323;28;20036;-58
2022/12/10 10:12:33;;;;;;;29.70;16.90;;;;;;;;;;5054430;28;20047;-59
2022/12/10 10:15:09;;;;;;;33.55;18.27;;;;;;;;;;5051875;28;20132;-58
2022/12/10 10:17:35;;;;;;;30.40;17.02;;;;;;;;;;5053582;28;20078;-58
2022/12/10 10:20:01;;;;;;;32.87;17.77;;;;;;;;;;5050293;28;20028;-60
2022/12/10 10:22:26;;;;;;;31.58;17.20;;;;;;;;;;5051440;28;21641;-58
2022/12/10 10:24:52;;;;;;;33.95;17.92;;;;;;;;;;5051781;28;20128;-58
2022/12/10 10:27:21;;;;;;;35.13;19.05;;;;;;;;;;5053095;28;20033;-59
2022/12/10 10:29:51;;;;;;;29.55;17.33;;;;;;;;;;5051721;28;20037;-58
2022/12/10 10:32:16;;;;;;;30.50;17.67;;;;;;;;;;5051184;28;20463;-59
2022/12/10 10:34:42;;;;;;;30.27;17.30;;;;;;;;;;5051357;28;20025;-58
2022/12/10 10:37:15;;;;;;;27.35;15.52;;;;;;;;;;5051938;28;20044;-58
2022/12/10 10:39:46;;;;;;;29.58;15.93;;;;;;;;;;5053001;28;20044;-58
2022/12/10 10:42:14;;;;;;;27.45;15.98;;;;;;;;;;5053950;28;20465;-58
2022/12/10 10:44:41;;;;;;;29.40;17.23;;;;;;;;;;5048950;28;20040;-58
2022/12/10 10:47:29;;;;;;;31.77;17.38;;;;;;;;;;5050485;28;20047;-59
2022/12/10 10:49:55;;;;;;;38.83;20.95;;;;;;;;;;5054119;28;20122;-59
2022/12/10 10:52:20;;;;;;;36.15;18.15;;;;;;;;;;5052479;28;20048;-58
2022/12/10 10:54:46;;;;;;;59.88;29.52;;;;;;;;;;5056534;28;20033;-59
2022/12/10 10:57:15;;;;;;;40.53;21.73;;;;;;;;;;5053209;28;20037;-58
2022/12/10 10:59:41;;;;;;;44.13;22.88;;;;;;;;;;5051876;28;20061;-57
2022/12/10 11:02:24;;;;;;;34.95;20.48;;;;;;;;;;5051531;28;20104;-59
2022/12/10 11:04:59;;;;;;;33.42;18.90;;;;;;;;;;5056082;28;20032;-58
2022/12/10 11:07:36;;;;;;;29.23;16.35;;;;;;;;;;5054105;28;20107;-59
2022/12/10 11:10:02;;;;;;;27.08;15.43;;;;;;;;;;5062290;28;20490;-58
2022/12/10 11:12:28;;;;;;;32.47;17.47;;;;;;;;;;5059975;28;20046;-58
2022/12/10 11:14:54;;;;;;;31.90;16.83;;;;;;;;;;5054503;28;20290;-58
2022/12/10 11:17:20;;;;;;;26.02;15.30;;;;;;;;;;5057248;28;20105;-58
2022/12/10 11:20:14;;;;;;;28.38;16.98;;;;;;;;;;5050962;28;20091;-58
2022/12/10 11:22:48;;;;;;;28.83;15.32;;;;;;;;;;5056702;28;20094;-58
2022/12/10 11:25:14;;;;;;;32.08;16.70;;;;;;;;;;5057072;28;20493;-58
2022/12/10 11:27:45;;;;;;;26.67;15.63;;;;;;;;;;5063128;28;20029;-57
2022/12/10 11:30:19;;;;;;;35.60;20.10;;;;;;;;;;5051664;28;20029;-59
2022/12/10 11:32:44;;;;;;;31.80;19.35;;;;;;;;;;5056307;28;20033;-57
2022/12/10 11:35:22;;;;;;;41.13;22.05;;;;;;;;;;5057563;28;20040;-57
2022/12/10 11:37:47;;;;;;;;;;;;;;;;;;5055368;28;20498;-58
2022/12/10 11:40:27;;;;;;;48.47;26.15;;;;;;;;;;5065208;28;19915;-57
2022/12/10 11:43:05;;;;;;;36.40;19.88;;;;;;;;;;5059697;28;20482;-57
2022/12/10 11:45:45;;;;;;;40.80;20.23;;;;;;;;;;5058558;28;20064;-57
2022/12/10 11:48:10;;;;;;;90.00;43.45;;;;;;;;;;5052630;28;20033;-58
2022/12/10 11:50:47;;;;;;;35.33;19.15;;;;;;;;;;5051590;28;20059;-57
2022/12/10 11:53:12;;;;;;;33.28;19.45;;;;;;;;;;5049851;28;20021;-58
2022/12/10 11:55:37;;;;;;;39.42;21.27;;;;;;;;;;5053768;28;20131;-58
2022/12/10 11:58:22;;;;;;;32.05;16.63;;;;;;;;;;5058032;28;20041;-58
2022/12/10 12:01:00;;;;;;;39.08;20.20;;;;;;;;;;5055607;28;20033;-58
2022/12/10 12:03:31;;;;;;;54.38;25.98;;;;;;;;;;5051059;28;20040;-60
2022/12/10 12:05:59;;;;;;;45.03;22.90;;;;;;;;;;5053919;28;20029;-57
2022/12/10 12:08:31;;;;;;;28.35;16.02;;;;;;;;;;5057404;28;20105;-59
2022/12/10 12:11:05;;;;;;;31.05;19.17;;;;;;;;;;5046350;28;20029;-59
2022/12/10 12:13:54;;;;;;;32.40;19.15;;;;;;;;;;5050946;28;20558;-59
2022/12/10 12:16:23;;;;;;;27.73;17.42;;;;;;;;;;5063771;28;20029;-59
2022/12/10 12:18:55;;;;;;;29.55;17.30;;;;;;;;;;5057956;28;20075;-58
2022/12/10 12:21:21;;;;;;;30.67;17.75;;;;;;;;;;5062670;28;20044;-59
2022/12/10 12:23:49;;;;;;;31.92;18.75;;;;;;;;;;5051475;28;20037;-58
2022/12/10 12:26:19;;;;;;;31.98;17.08;;;;;;;;;;5056676;28;20046;-57
2022/12/10 12:28:50;;;;;;;29.90;17.63;;;;;;;;;;5057909;28;20036;-58
2022/12/10 12:31:27;;;;;;;30.52;17.45;;;;;;;;;;5058262;28;20033;-59
2022/12/10 12:34:04;;;;;;;88.18;36.22;;;;;;;;;;5057054;28;20033;-59
2022/12/10 12:36:32;;;;;;;30.90;18.17;;;;;;;;;;5056831;28;20036;-59
2022/12/10 12:38:59;;;;;;;29.92;17.17;;;;;;;;;;5057027;28;20487;-58
2022/12/10 12:41:34;;;;;;;33.93;18.67;;;;;;;;;;5053306;28;20111;-56
2022/12/10 12:43:59;;;;;;;32.47;17.67;;;;;;;;;;5057858;28;20327;-56
2022/12/10 12:46:39;;;;;;;31.40;17.67;;;;;;;;;;5053099;28;20053;-57
2022/12/10 12:49:20;;;;;;;36.25;18.33;;;;;;;;;;5049982;28;20060;-59
2022/12/10 12:51:54;;;;;;;32.22;20.27;;;;;;;;;;5050467;28;20054;-59
2022/12/10 12:54:20;;;;;;;32.00;17.98;;;;;;;;;;5055819;28;20028;-56
2022/12/10 12:56:58;;;;;;;30.42;17.15;;;;;;;;;;5053689;28;20067;-57
2022/12/10 12:59:30;;;;;;;27.60;16.52;;;;;;;;;;5056913;28;20671;-58
2022/12/10 13:02:03;;;;;;;33.47;16.70;;;;;;;;;;5058001;28;20044;-59
2022/12/10 13:04:28;;;;;;;30.17;16.13;;;;;;;;;;5056381;28;20098;-58
2022/12/10 13:07:26;;;;;;;26.60;16.15;;;;;;;;;;5055241;28;20399;-58
2022/12/10 13:10:09;;;;;;;27.27;15.48;;;;;;;;;;5056023;28;20036;-58
2022/12/10 13:12:37;;;;;;;25.30;14.73;;;;;;;;;;5059335;28;20093;-59
2022/12/10 13:15:18;;;;;;;27.50;15.82;;;;;;;;;;5055373;28;20028;-59
2022/12/10 13:18:03;;;;;;;25.98;15.02;;;;;;;;;;5056285;28;20044;-59
2022/12/10 13:20:35;;;;;;;28.90;15.13;;;;;;;;;;5055316;28;20686;-59
2022/12/10 13:23:01;;;;;;;25.58;14.73;;;;;;;;;;5061512;28;20052;-60
2022/12/10 13:25:45;;;;;;;24.58;14.55;;;;;;;;;;5048558;28;20517;-61
2022/12/10 13:28:27;;;;;;;25.13;14.18;;;;;;;;;;5057667;28;20047;-59
2022/12/10 13:31:11;;;;;;;22.23;13.23;;;;;;;;;;5055147;28;20032;-59
2022/12/10 13:34:09;;;;;;;23.23;13.63;;;;;;;;;;5037750;28;20029;-58
2022/12/10 13:36:36;;;;;;;24.92;14.68;;;;;;;;;;5051269;28;20079;-58
2022/12/10 13:39:04;;;;;;;23.80;14.30;;;;;;;;;;5055071;28;20526;-58
2022/12/10 13:44:32;;;;;;;25.13;14.55;;;;;;;;;;5051268;28;20024;-59
2022/12/10 13:46:58;;;;;;;25.23;14.63;;;;;;;;;;5054235;28;20075;-59
2022/12/10 13:49:29;;;;;;;26.42;14.60;;;;;;;;;;5053855;28;20071;-58
2022/12/10 13:52:02;;;;;;;25.23;14.02;;;;;;;;;;5049572;28;20029;-58
2022/12/10 13:54:33;;;;;;;25.40;14.60;;;;;;;;;;5053679;28;20112;-58
2022/12/10 13:57:05;;;;;;;25.75;15.32;;;;;;;;;;5054373;28;20020;-59
2022/12/10 13:59:48;;;;;;;26.10;14.80;;;;;;;;;;5054940;28;20387;-58
2022/12/10 14:02:32;;;;;;;30.40;14.50;;;;;;;;;;5051954;28;20620;-58
2022/12/10 14:04:57;;;;;;;26.08;14.20;;;;;;;;;;5053921;28;20521;-58
2022/12/10 14:07:25;;;;;;;26.05;14.07;;;;;;;;;;5050534;28;20040;-59
2022/12/10 14:09:54;;;;;;;31.60;15.15;;;;;;;;;;5051070;28;20040;-58
2022/12/10 14:12:31;;;;;;;26.48;14.23;;;;;;;;;;5048864;28;20740;-59
2022/12/10 14:15:02;;;;;;;26.73;13.55;;;;;;;;;;5049808;28;20424;-58
2022/12/10 14:17:33;;;;;;;30.17;15.13;;;;;;;;;;5051065;28;20493;-59
2022/12/10 14:19:59;;;;;;;24.67;14.35;;;;;;;;;;5059743;28;20037;-58
2022/12/10 14:22:33;;;;;;;24.58;14.45;;;;;;;;;;5052029;28;20033;-58
2022/12/10 14:25:00;;;;;;;31.52;16.45;;;;;;;;;;5052560;28;20120;-58
2022/12/10 14:27:27;;;;;;;26.98;15.77;;;;;;;;;;5054207;28;20171;-58
2022/12/10 14:30:04;;;;;;;29.65;16.20;;;;;;;;;;5090992;23;20041;-93
2022/12/10 14:32:33;;;;;;;27.30;15.77;;;;;;;;;;5045351;28;20491;-94
2022/12/10 14:35:01;;;;;;;27.88;15.52;;;;;;;;;;5031356;28;20076;-93
2022/12/10 14:37:30;;;;;;;25.73;14.43;;;;;;;;;;5004859;28;20034;-93
2022/12/10 14:39:55;;;;;;;;;;;;;;;;;;5004147;28;20342;-93